sensor_id;sensor_type;location;lat;lon;timestamp;P1;durP1;ratioP1;P2;durP2;ratioP2
6342;SDS011;3204;42.698;23.298;2022-09-17T00:00:49;7.20;;;6.50;;
6342;SDS011;3204;42.698;23.298;2022-09-17T00:03:16;7.68;;;6.72;;
6342;SDS011;3204;42.698;23.298;2022-09-17T00:05:42;7.40;;;6.53;;
6342;SDS011;3204;42.698;23.298;2022-09-17T00:08:09;7.22;;;6.50;;
6342;SDS011;3204;42.698;23.298;2022-09-17T00:10:38;9.93;;;6.72;;
6342;SDS011;3204;42.698;23.298;2022-09-17T00:13:06;9.98;;;6.68;;
6342;SDS011;3204;42.698;23.298;2022-09-17T00:15:31;7.63;;;6.35;;
6342;SDS011;3204;42.698;23.298;2022-09-17T00:17:57;7.95;;;7.13;;
6342;SDS011;3204;42.698;23.298;2022-09-17T00:20:24;11.60;;;6.40;;
6342;SDS011;3204;42.698;23.298;2022-09-17T00:22:50;7.53;;;6.88;;
6342;SDS011;3204;42.698;23.298;2022-09-17T00:25:15;7.22;;;6.68;;
6342;SDS011;3204;42.698;23.298;2022-09-17T00:27:41;9.48;;;6.13;;
6342;SDS011;3204;42.698;23.298;2022-09-17T00:30:07;7.00;;;6.32;;
6342;SDS011;3204;42.698;23.298;2022-09-17T00:32:33;7.50;;;6.50;;
6342;SDS011;3204;42.698;23.298;2022-09-17T00:34:58;7.47;;;6.65;;
6342;SDS011;3204;42.698;23.298;2022-09-17T00:37:24;8.25;;;6.60;;
6342;SDS011;3204;42.698;23.298;2022-09-17T00:39:49;7.20;;;6.47;;
6342;SDS011;3204;42.698;23.298;2022-09-17T00:42:15;6.90;;;6.30;;
6342;SDS011;3204;42.698;23.298;2022-09-17T00:49:45;7.78;;;6.10;;
6342;SDS011;3204;42.698;23.298;2022-09-17T00:52:14;6.53;;;5.93;;
6342;SDS011;3204;42.698;23.298;2022-09-17T00:54:48;7.55;;;6.05;;
6342;SDS011;3204;42.698;23.298;2022-09-17T00:57:22;7.72;;;6.68;;
6342;SDS011;3204;42.698;23.298;2022-09-17T00:59:48;8.57;;;5.90;;
6342;SDS011;3204;42.698;23.298;2022-09-17T01:02:14;11.80;;;6.38;;
6342;SDS011;3204;42.698;23.298;2022-09-17T01:04:40;6.72;;;6.03;;
6342;SDS011;3204;42.698;23.298;2022-09-17T01:12:45;8.07;;;6.22;;
6342;SDS011;3204;42.698;23.298;2022-09-17T01:15:38;6.85;;;6.15;;
6342;SDS011;3204;42.698;23.298;2022-09-17T01:18:21;6.47;;;5.85;;
6342;SDS011;3204;42.698;23.298;2022-09-17T01:24:00;7.22;;;5.72;;
6342;SDS011;3204;42.698;23.298;2022-09-17T01:32:02;5.95;;;5.35;;
6342;SDS011;3204;42.698;23.298;2022-09-17T01:37:42;8.80;;;6.15;;
6342;SDS011;3204;42.698;23.298;2022-09-17T01:40:20;9.13;;;6.75;;
6342;SDS011;3204;42.698;23.298;2022-09-17T01:42:54;6.65;;;6.05;;
6342;SDS011;3204;42.698;23.298;2022-09-17T01:45:29;8.07;;;7.28;;
6342;SDS011;3204;42.698;23.298;2022-09-17T01:50:38;6.53;;;5.85;;
6342;SDS011;3204;42.698;23.298;2022-09-17T01:53:09;7.13;;;5.38;;
6342;SDS011;3204;42.698;23.298;2022-09-17T01:55:36;5.97;;;5.60;;
6342;SDS011;3204;42.698;23.298;2022-09-17T01:58:12;8.02;;;5.35;;
6342;SDS011;3204;42.698;23.298;2022-09-17T02:00:44;6.57;;;5.10;;
6342;SDS011;3204;42.698;23.298;2022-09-17T02:03:19;6.40;;;4.85;;
6342;SDS011;3204;42.698;23.298;2022-09-17T02:05:49;6.53;;;5.25;;
6342;SDS011;3204;42.698;23.298;2022-09-17T02:08:21;6.00;;;5.47;;
6342;SDS011;3204;42.698;23.298;2022-09-17T02:10:52;5.72;;;5.13;;
6342;SDS011;3204;42.698;23.298;2022-09-17T02:13:28;9.13;;;5.18;;
6342;SDS011;3204;42.698;23.298;2022-09-17T02:16:00;8.40;;;5.40;;
6342;SDS011;3204;42.698;23.298;2022-09-17T02:24:24;5.00;;;4.60;;
6342;SDS011;3204;42.698;23.298;2022-09-17T02:26:55;4.90;;;4.40;;
6342;SDS011;3204;42.698;23.298;2022-09-17T02:29:31;6.78;;;4.65;;
6342;SDS011;3204;42.698;23.298;2022-09-17T02:31:58;5.53;;;5.05;;
6342;SDS011;3204;42.698;23.298;2022-09-17T02:34:25;7.55;;;4.65;;
6342;SDS011;3204;42.698;23.298;2022-09-17T02:36:53;5.18;;;4.43;;
6342;SDS011;3204;42.698;23.298;2022-09-17T02:39:19;5.32;;;4.22;;
6342;SDS011;3204;42.698;23.298;2022-09-17T02:41:46;8.75;;;6.22;;
6342;SDS011;3204;42.698;23.298;2022-09-17T03:00:45;6.65;;;4.95;;
6342;SDS011;3204;42.698;23.298;2022-09-17T03:03:12;5.88;;;4.97;;
6342;SDS011;3204;42.698;23.298;2022-09-17T03:05:45;5.28;;;4.93;;
6342;SDS011;3204;42.698;23.298;2022-09-17T03:08:12;7.95;;;4.78;;
6342;SDS011;3204;42.698;23.298;2022-09-17T03:10:38;6.75;;;5.32;;
6342;SDS011;3204;42.698;23.298;2022-09-17T03:13:04;7.70;;;5.38;;
6342;SDS011;3204;42.698;23.298;2022-09-17T03:15:30;6.93;;;5.28;;
6342;SDS011;3204;42.698;23.298;2022-09-17T03:17:55;5.30;;;4.82;;
6342;SDS011;3204;42.698;23.298;2022-09-17T03:20:21;5.78;;;5.30;;
6342;SDS011;3204;42.698;23.298;2022-09-17T03:22:47;5.65;;;5.07;;
6342;SDS011;3204;42.698;23.298;2022-09-17T03:25:12;6.95;;;5.28;;
6342;SDS011;3204;42.698;23.298;2022-09-17T03:27:37;5.43;;;5.03;;
6342;SDS011;3204;42.698;23.298;2022-09-17T03:30:04;5.22;;;4.85;;
6342;SDS011;3204;42.698;23.298;2022-09-17T03:32:31;5.28;;;4.60;;
6342;SDS011;3204;42.698;23.298;2022-09-17T03:34:56;6.22;;;4.57;;
6342;SDS011;3204;42.698;23.298;2022-09-17T03:37:22;5.80;;;5.30;;
6342;SDS011;3204;42.698;23.298;2022-09-17T03:39:48;6.75;;;5.25;;
6342;SDS011;3204;42.698;23.298;2022-09-17T03:42:13;5.72;;;5.22;;
6342;SDS011;3204;42.698;23.298;2022-09-17T03:44:39;6.18;;;5.60;;
6342;SDS011;3204;42.698;23.298;2022-09-17T03:47:05;6.53;;;5.78;;
6342;SDS011;3204;42.698;23.298;2022-09-17T03:49:30;6.68;;;5.85;;
6342;SDS011;3204;42.698;23.298;2022-09-17T03:51:56;7.68;;;6.47;;
6342;SDS011;3204;42.698;23.298;2022-09-17T03:54:22;6.82;;;6.22;;
6342;SDS011;3204;42.698;23.298;2022-09-17T03:56:47;7.63;;;5.85;;
6342;SDS011;3204;42.698;23.298;2022-09-17T03:59:13;8.13;;;5.90;;
6342;SDS011;3204;42.698;23.298;2022-09-17T04:01:38;10.80;;;6.72;;
6342;SDS011;3204;42.698;23.298;2022-09-17T04:04:04;6.18;;;5.65;;
6342;SDS011;3204;42.698;23.298;2022-09-17T04:06:29;6.60;;;6.00;;
6342;SDS011;3204;42.698;23.298;2022-09-17T04:08:55;6.40;;;5.80;;
6342;SDS011;3204;42.698;23.298;2022-09-17T04:11:21;6.72;;;5.43;;
6342;SDS011;3204;42.698;23.298;2022-09-17T04:13:47;6.25;;;5.47;;
6342;SDS011;3204;42.698;23.298;2022-09-17T04:16:13;8.20;;;6.10;;
6342;SDS011;3204;42.698;23.298;2022-09-17T04:18:39;7.82;;;5.95;;
6342;SDS011;3204;42.698;23.298;2022-09-17T04:21:04;10.40;;;5.63;;
6342;SDS011;3204;42.698;23.298;2022-09-17T04:23:30;7.05;;;6.55;;
6342;SDS011;3204;42.698;23.298;2022-09-17T04:25:55;8.32;;;6.07;;
6342;SDS011;3204;42.698;23.298;2022-09-17T04:28:21;7.90;;;6.43;;
6342;SDS011;3204;42.698;23.298;2022-09-17T04:30:48;6.50;;;5.85;;
6342;SDS011;3204;42.698;23.298;2022-09-17T04:33:13;6.28;;;5.68;;
6342;SDS011;3204;42.698;23.298;2022-09-17T04:35:39;7.93;;;6.28;;
6342;SDS011;3204;42.698;23.298;2022-09-17T04:38:04;8.07;;;5.70;;
6342;SDS011;3204;42.698;23.298;2022-09-17T04:40:29;8.23;;;5.70;;
6342;SDS011;3204;42.698;23.298;2022-09-17T04:42:56;7.18;;;6.43;;
6342;SDS011;3204;42.698;23.298;2022-09-17T04:45:23;7.80;;;5.93;;
6342;SDS011;3204;42.698;23.298;2022-09-17T04:47:51;5.93;;;5.43;;
6342;SDS011;3204;42.698;23.298;2022-09-17T04:50:17;5.43;;;4.93;;
6342;SDS011;3204;42.698;23.298;2022-09-17T04:52:42;6.68;;;6.18;;
6342;SDS011;3204;42.698;23.298;2022-09-17T04:55:09;8.73;;;6.25;;
6342;SDS011;3204;42.698;23.298;2022-09-17T04:57:34;7.40;;;5.57;;
6342;SDS011;3204;42.698;23.298;2022-09-17T05:00:00;6.40;;;5.88;;
6342;SDS011;3204;42.698;23.298;2022-09-17T05:02:26;10.55;;;6.30;;
6342;SDS011;3204;42.698;23.298;2022-09-17T05:04:51;8.13;;;5.97;;
6342;SDS011;3204;42.698;23.298;2022-09-17T05:07:17;6.93;;;6.07;;
6342;SDS011;3204;42.698;23.298;2022-09-17T05:09:44;7.18;;;5.40;;
6342;SDS011;3204;42.698;23.298;2022-09-17T05:12:09;8.70;;;5.15;;
6342;SDS011;3204;42.698;23.298;2022-09-17T05:14:34;8.45;;;4.55;;
6342;SDS011;3204;42.698;23.298;2022-09-17T05:17:00;6.00;;;4.50;;
6342;SDS011;3204;42.698;23.298;2022-09-17T05:19:26;7.25;;;4.10;;
6342;SDS011;3204;42.698;23.298;2022-09-17T05:21:51;7.93;;;3.40;;
6342;SDS011;3204;42.698;23.298;2022-09-17T05:24:16;9.05;;;3.60;;
6342;SDS011;3204;42.698;23.298;2022-09-17T05:26:42;7.35;;;3.50;;
6342;SDS011;3204;42.698;23.298;2022-09-17T05:29:08;6.10;;;3.83;;
6342;SDS011;3204;42.698;23.298;2022-09-17T05:31:33;10.77;;;3.50;;
6342;SDS011;3204;42.698;23.298;2022-09-17T05:33:58;7.85;;;4.20;;
6342;SDS011;3204;42.698;23.298;2022-09-17T05:36:24;5.30;;;3.65;;
6342;SDS011;3204;42.698;23.298;2022-09-17T05:38:49;7.93;;;3.80;;
6342;SDS011;3204;42.698;23.298;2022-09-17T05:41:15;5.63;;;3.88;;
6342;SDS011;3204;42.698;23.298;2022-09-17T05:43:41;7.70;;;3.72;;
6342;SDS011;3204;42.698;23.298;2022-09-17T05:46:07;6.57;;;3.83;;
6342;SDS011;3204;42.698;23.298;2022-09-17T05:48:33;7.72;;;3.90;;
6342;SDS011;3204;42.698;23.298;2022-09-17T05:50:59;6.93;;;4.00;;
6342;SDS011;3204;42.698;23.298;2022-09-17T05:53:25;8.93;;;4.22;;
6342;SDS011;3204;42.698;23.298;2022-09-17T05:55:50;9.38;;;4.03;;
6342;SDS011;3204;42.698;23.298;2022-09-17T05:58:20;5.90;;;3.90;;
6342;SDS011;3204;42.698;23.298;2022-09-17T06:00:46;9.60;;;3.95;;
6342;SDS011;3204;42.698;23.298;2022-09-17T06:03:13;5.63;;;4.20;;
6342;SDS011;3204;42.698;23.298;2022-09-17T06:05:40;4.55;;;4.15;;
6342;SDS011;3204;42.698;23.298;2022-09-17T06:08:06;9.05;;;5.03;;
6342;SDS011;3204;42.698;23.298;2022-09-17T06:10:36;10.40;;;4.20;;
6342;SDS011;3204;42.698;23.298;2022-09-17T06:13:02;8.68;;;3.97;;
6342;SDS011;3204;42.698;23.298;2022-09-17T06:15:28;7.07;;;4.30;;
6342;SDS011;3204;42.698;23.298;2022-09-17T06:17:54;6.70;;;4.38;;
6342;SDS011;3204;42.698;23.298;2022-09-17T06:20:19;6.45;;;3.85;;
6342;SDS011;3204;42.698;23.298;2022-09-17T06:22:45;4.95;;;3.30;;
6342;SDS011;3204;42.698;23.298;2022-09-17T06:25:11;6.47;;;3.47;;
6342;SDS011;3204;42.698;23.298;2022-09-17T06:27:37;4.07;;;3.63;;
6342;SDS011;3204;42.698;23.298;2022-09-17T06:30:02;9.30;;;3.78;;
6342;SDS011;3204;42.698;23.298;2022-09-17T06:32:29;4.70;;;3.50;;
6342;SDS011;3204;42.698;23.298;2022-09-17T06:34:55;7.00;;;3.70;;
6342;SDS011;3204;42.698;23.298;2022-09-17T06:37:27;7.85;;;4.10;;
6342;SDS011;3204;42.698;23.298;2022-09-17T06:39:56;6.03;;;3.50;;
6342;SDS011;3204;42.698;23.298;2022-09-17T06:42:25;4.43;;;3.22;;
6342;SDS011;3204;42.698;23.298;2022-09-17T06:44:52;5.32;;;2.95;;
6342;SDS011;3204;42.698;23.298;2022-09-17T06:47:18;9.45;;;3.33;;
6342;SDS011;3204;42.698;23.298;2022-09-17T06:49:43;5.78;;;3.00;;
6342;SDS011;3204;42.698;23.298;2022-09-17T06:52:09;4.90;;;3.15;;
6342;SDS011;3204;42.698;23.298;2022-09-17T06:54:34;4.97;;;3.50;;
6342;SDS011;3204;42.698;23.298;2022-09-17T06:57:00;4.50;;;3.20;;
6342;SDS011;3204;42.698;23.298;2022-09-17T06:59:25;4.32;;;3.15;;
6342;SDS011;3204;42.698;23.298;2022-09-17T07:01:52;5.78;;;3.47;;
6342;SDS011;3204;42.698;23.298;2022-09-17T07:04:17;4.97;;;3.70;;
6342;SDS011;3204;42.698;23.298;2022-09-17T07:06:43;5.75;;;3.33;;
6342;SDS011;3204;42.698;23.298;2022-09-17T07:09:09;6.50;;;4.22;;
6342;SDS011;3204;42.698;23.298;2022-09-17T07:11:35;8.75;;;4.78;;
6342;SDS011;3204;42.698;23.298;2022-09-17T07:14:02;8.15;;;5.15;;
6342;SDS011;3204;42.698;23.298;2022-09-17T07:16:28;10.30;;;4.85;;
6342;SDS011;3204;42.698;23.298;2022-09-17T07:18:59;6.30;;;3.85;;
6342;SDS011;3204;42.698;23.298;2022-09-17T07:21:24;6.18;;;4.60;;
6342;SDS011;3204;42.698;23.298;2022-09-17T07:23:50;8.73;;;5.50;;
6342;SDS011;3204;42.698;23.298;2022-09-17T07:26:15;6.60;;;5.30;;
6342;SDS011;3204;42.698;23.298;2022-09-17T07:28:41;6.90;;;4.78;;
6342;SDS011;3204;42.698;23.298;2022-09-17T07:31:09;7.07;;;4.93;;
6342;SDS011;3204;42.698;23.298;2022-09-17T07:33:35;7.40;;;5.32;;
6342;SDS011;3204;42.698;23.298;2022-09-17T07:36:03;6.45;;;4.40;;
6342;SDS011;3204;42.698;23.298;2022-09-17T07:38:30;5.10;;;4.72;;
6342;SDS011;3204;42.698;23.298;2022-09-17T07:40:56;5.90;;;4.70;;
6342;SDS011;3204;42.698;23.298;2022-09-17T07:43:27;8.55;;;4.38;;
6342;SDS011;3204;42.698;23.298;2022-09-17T07:45:55;6.07;;;3.95;;
6342;SDS011;3204;42.698;23.298;2022-09-17T07:48:22;9.77;;;4.22;;
6342;SDS011;3204;42.698;23.298;2022-09-17T07:50:48;4.07;;;3.78;;
6342;SDS011;3204;42.698;23.298;2022-09-17T07:53:14;5.07;;;4.57;;
6342;SDS011;3204;42.698;23.298;2022-09-17T07:55:40;3.67;;;3.40;;
6342;SDS011;3204;42.698;23.298;2022-09-17T07:58:05;4.88;;;3.00;;
6342;SDS011;3204;42.698;23.298;2022-09-17T08:00:31;6.13;;;3.35;;
6342;SDS011;3204;42.698;23.298;2022-09-17T08:02:58;4.45;;;3.30;;
6342;SDS011;3204;42.698;23.298;2022-09-17T08:05:24;3.95;;;3.60;;
6342;SDS011;3204;42.698;23.298;2022-09-17T08:07:53;4.68;;;3.00;;
6342;SDS011;3204;42.698;23.298;2022-09-17T08:10:20;3.85;;;3.08;;
6342;SDS011;3204;42.698;23.298;2022-09-17T08:12:47;7.45;;;3.17;;
6342;SDS011;3204;42.698;23.298;2022-09-17T08:15:13;8.10;;;2.90;;
6342;SDS011;3204;42.698;23.298;2022-09-17T08:17:43;5.25;;;2.75;;
6342;SDS011;3204;42.698;23.298;2022-09-17T08:20:09;4.35;;;3.20;;
6342;SDS011;3204;42.698;23.298;2022-09-17T08:22:34;3.10;;;2.75;;
6342;SDS011;3204;42.698;23.298;2022-09-17T08:25:00;4.65;;;2.83;;
6342;SDS011;3204;42.698;23.298;2022-09-17T08:27:28;3.65;;;2.35;;
6342;SDS011;3204;42.698;23.298;2022-09-17T08:29:54;3.00;;;2.67;;
6342;SDS011;3204;42.698;23.298;2022-09-17T08:32:20;4.65;;;2.65;;
6342;SDS011;3204;42.698;23.298;2022-09-17T08:34:45;3.15;;;2.75;;
6342;SDS011;3204;42.698;23.298;2022-09-17T08:37:11;3.85;;;2.28;;
6342;SDS011;3204;42.698;23.298;2022-09-17T08:39:36;3.40;;;3.10;;
6342;SDS011;3204;42.698;23.298;2022-09-17T08:44:37;3.72;;;2.95;;
6342;SDS011;3204;42.698;23.298;2022-09-17T08:50:02;2.47;;;2.25;;
6342;SDS011;3204;42.698;23.298;2022-09-17T09:00:16;5.22;;;2.60;;
6342;SDS011;3204;42.698;23.298;2022-09-17T09:07:51;5.20;;;3.10;;
6342;SDS011;3204;42.698;23.298;2022-09-17T09:10:20;7.72;;;3.15;;
6342;SDS011;3204;42.698;23.298;2022-09-17T09:12:52;5.50;;;2.40;;
6342;SDS011;3204;42.698;23.298;2022-09-17T09:17:58;4.18;;;2.90;;
6342;SDS011;3204;42.698;23.298;2022-09-17T09:20:30;7.82;;;3.75;;
6342;SDS011;3204;42.698;23.298;2022-09-17T09:23:16;3.38;;;3.03;;
6342;SDS011;3204;42.698;23.298;2022-09-17T09:25:54;3.53;;;2.92;;
6342;SDS011;3204;42.698;23.298;2022-09-17T09:33:51;4.45;;;3.10;;
6342;SDS011;3204;42.698;23.298;2022-09-17T09:36:17;4.70;;;3.65;;
6342;SDS011;3204;42.698;23.298;2022-09-17T09:41:19;7.57;;;3.30;;
6342;SDS011;3204;42.698;23.298;2022-09-17T09:44:10;4.57;;;4.00;;
6342;SDS011;3204;42.698;23.298;2022-09-17T09:55:18;3.90;;;3.50;;
6342;SDS011;3204;42.698;23.298;2022-09-17T09:58:07;3.40;;;3.05;;
6342;SDS011;3204;42.698;23.298;2022-09-17T10:00:56;3.22;;;3.00;;
6342;SDS011;3204;42.698;23.298;2022-09-17T10:03:29;3.63;;;3.17;;
6342;SDS011;3204;42.698;23.298;2022-09-17T10:08:34;4.63;;;3.50;;
6342;SDS011;3204;42.698;23.298;2022-09-17T10:13:37;4.13;;;3.75;;
6342;SDS011;3204;42.698;23.298;2022-09-17T10:16:36;4.55;;;4.10;;
6342;SDS011;3204;42.698;23.298;2022-09-17T10:21:31;4.82;;;4.30;;
6342;SDS011;3204;42.698;23.298;2022-09-17T10:23:59;6.45;;;3.95;;
6342;SDS011;3204;42.698;23.298;2022-09-17T10:26:28;4.80;;;4.40;;
6342;SDS011;3204;42.698;23.298;2022-09-17T10:28:57;6.45;;;5.32;;
6342;SDS011;3204;42.698;23.298;2022-09-17T10:31:24;6.47;;;5.65;;
6342;SDS011;3204;42.698;23.298;2022-09-17T10:41:54;5.30;;;4.78;;
6342;SDS011;3204;42.698;23.298;2022-09-17T10:44:34;6.50;;;5.63;;
6342;SDS011;3204;42.698;23.298;2022-09-17T10:47:02;8.27;;;6.15;;
6342;SDS011;3204;42.698;23.298;2022-09-17T10:49:34;6.30;;;4.95;;
6342;SDS011;3204;42.698;23.298;2022-09-17T10:52:07;6.07;;;4.75;;
6342;SDS011;3204;42.698;23.298;2022-09-17T11:14:52;4.97;;;3.70;;
6342;SDS011;3204;42.698;23.298;2022-09-17T11:20:00;7.05;;;4.80;;
6342;SDS011;3204;42.698;23.298;2022-09-17T11:22:46;5.93;;;5.32;;
6342;SDS011;3204;42.698;23.298;2022-09-17T11:25:38;5.07;;;4.78;;
6342;SDS011;3204;42.698;23.298;2022-09-17T11:36:17;6.53;;;4.35;;
6342;SDS011;3204;42.698;23.298;2022-09-17T11:38:49;5.43;;;4.30;;
6342;SDS011;3204;42.698;23.298;2022-09-17T11:46:50;3.88;;;3.45;;
6342;SDS011;3204;42.698;23.298;2022-09-17T11:51:51;3.05;;;2.85;;
6342;SDS011;3204;42.698;23.298;2022-09-17T11:57:05;3.80;;;3.40;;
6342;SDS011;3204;42.698;23.298;2022-09-17T11:59:39;3.50;;;3.20;;
6342;SDS011;3204;42.698;23.298;2022-09-17T12:02:20;8.23;;;3.45;;
6342;SDS011;3204;42.698;23.298;2022-09-17T12:05:05;6.18;;;3.83;;
6342;SDS011;3204;42.698;23.298;2022-09-17T12:12:51;2.72;;;2.42;;
6342;SDS011;3204;42.698;23.298;2022-09-17T12:15:25;5.13;;;4.07;;
6342;SDS011;3204;42.698;23.298;2022-09-17T12:18:42;3.28;;;2.90;;
6342;SDS011;3204;42.698;23.298;2022-09-17T12:21:08;3.38;;;3.03;;
6342;SDS011;3204;42.698;23.298;2022-09-17T12:23:41;7.07;;;3.20;;
6342;SDS011;3204;42.698;23.298;2022-09-17T12:34:33;3.45;;;3.20;;
6342;SDS011;3204;42.698;23.298;2022-09-17T12:59:10;4.50;;;4.00;;
6342;SDS011;3204;42.698;23.298;2022-09-17T13:07:02;4.25;;;2.60;;
6342;SDS011;3204;42.698;23.298;2022-09-17T13:12:54;2.95;;;1.80;;
6342;SDS011;3204;42.698;23.298;2022-09-17T13:23:48;3.80;;;3.38;;
6342;SDS011;3204;42.698;23.298;2022-09-17T13:26:16;3.95;;;3.65;;
6342;SDS011;3204;42.698;23.298;2022-09-17T13:28:48;4.15;;;3.70;;
6342;SDS011;3204;42.698;23.298;2022-09-17T13:31:44;3.30;;;2.97;;
6342;SDS011;3204;42.698;23.298;2022-09-17T13:36:49;3.40;;;3.00;;
6342;SDS011;3204;42.698;23.298;2022-09-17T13:52:54;2.85;;;2.65;;
6342;SDS011;3204;42.698;23.298;2022-09-17T13:55:55;3.10;;;2.80;;
6342;SDS011;3204;42.698;23.298;2022-09-17T14:13:55;6.72;;;5.43;;
6342;SDS011;3204;42.698;23.298;2022-09-17T14:22:01;6.85;;;4.68;;
6342;SDS011;3204;42.698;23.298;2022-09-17T14:24:34;4.47;;;4.00;;
6342;SDS011;3204;42.698;23.298;2022-09-17T14:40:44;5.00;;;4.50;;
6342;SDS011;3204;42.698;23.298;2022-09-17T14:43:29;5.95;;;5.00;;
6342;SDS011;3204;42.698;23.298;2022-09-17T14:45:55;6.22;;;5.03;;
6342;SDS011;3204;42.698;23.298;2022-09-17T14:48:31;5.60;;;4.70;;
6342;SDS011;3204;42.698;23.298;2022-09-17T14:56:29;5.18;;;4.65;;
6342;SDS011;3204;42.698;23.298;2022-09-17T14:58:59;5.53;;;5.00;;
6342;SDS011;3204;42.698;23.298;2022-09-17T15:01:26;4.20;;;3.90;;
6342;SDS011;3204;42.698;23.298;2022-09-17T15:06:37;5.15;;;3.58;;
6342;SDS011;3204;42.698;23.298;2022-09-17T15:09:03;4.10;;;3.28;;
6342;SDS011;3204;42.698;23.298;2022-09-17T15:11:30;3.50;;;3.20;;
6342;SDS011;3204;42.698;23.298;2022-09-17T15:14:02;3.25;;;2.90;;
6342;SDS011;3204;42.698;23.298;2022-09-17T15:16:30;4.15;;;3.22;;
6342;SDS011;3204;42.698;23.298;2022-09-17T15:18:57;4.45;;;2.60;;
6342;SDS011;3204;42.698;23.298;2022-09-17T15:26:48;3.08;;;2.30;;
6342;SDS011;3204;42.698;23.298;2022-09-17T15:29:21;3.53;;;3.08;;
6342;SDS011;3204;42.698;23.298;2022-09-17T15:31:49;3.60;;;3.30;;
6342;SDS011;3204;42.698;23.298;2022-09-17T15:34:16;2.70;;;2.50;;
6342;SDS011;3204;42.698;23.298;2022-09-17T15:37:01;3.13;;;2.30;;
6342;SDS011;3204;42.698;23.298;2022-09-17T15:39:41;2.85;;;2.53;;
6342;SDS011;3204;42.698;23.298;2022-09-17T15:42:32;3.05;;;2.90;;
6342;SDS011;3204;42.698;23.298;2022-09-17T15:45:17;3.28;;;3.08;;
6342;SDS011;3204;42.698;23.298;2022-09-17T15:47:56;4.03;;;2.83;;
6342;SDS011;3204;42.698;23.298;2022-09-17T15:50:24;3.88;;;3.55;;
6342;SDS011;3204;42.698;23.298;2022-09-17T15:52:56;3.03;;;2.83;;
6342;SDS011;3204;42.698;23.298;2022-09-17T15:55:44;4.60;;;3.53;;
6342;SDS011;3204;42.698;23.298;2022-09-17T16:08:53;4.35;;;4.05;;
6342;SDS011;3204;42.698;23.298;2022-09-17T16:11:26;4.35;;;4.00;;
6342;SDS011;3204;42.698;23.298;2022-09-17T16:13:54;7.65;;;3.95;;
6342;SDS011;3204;42.698;23.298;2022-09-17T16:16:22;4.53;;;4.10;;
6342;SDS011;3204;42.698;23.298;2022-09-17T16:18:49;4.70;;;4.10;;
6342;SDS011;3204;42.698;23.298;2022-09-17T16:21:16;4.35;;;3.92;;
6342;SDS011;3204;42.698;23.298;2022-09-17T16:23:43;3.72;;;3.53;;
6342;SDS011;3204;42.698;23.298;2022-09-17T16:26:13;4.03;;;3.72;;
6342;SDS011;3204;42.698;23.298;2022-09-17T16:28:43;4.50;;;3.70;;
6342;SDS011;3204;42.698;23.298;2022-09-17T16:31:12;5.15;;;4.68;;
6342;SDS011;3204;42.698;23.298;2022-09-17T16:33:38;4.22;;;3.92;;
6342;SDS011;3204;42.698;23.298;2022-09-17T16:36:03;3.80;;;3.42;;
6342;SDS011;3204;42.698;23.298;2022-09-17T16:38:29;3.72;;;3.42;;
6342;SDS011;3204;42.698;23.298;2022-09-17T16:40:55;4.60;;;4.20;;
6342;SDS011;3204;42.698;23.298;2022-09-17T16:43:20;5.65;;;4.35;;
6342;SDS011;3204;42.698;23.298;2022-09-17T16:45:59;4.55;;;3.58;;
6342;SDS011;3204;42.698;23.298;2022-09-17T16:48:25;4.30;;;4.00;;
6342;SDS011;3204;42.698;23.298;2022-09-17T16:50:50;4.82;;;4.43;;
6342;SDS011;3204;42.698;23.298;2022-09-17T16:53:16;5.15;;;4.20;;
6342;SDS011;3204;42.698;23.298;2022-09-17T16:55:41;5.32;;;4.68;;
6342;SDS011;3204;42.698;23.298;2022-09-17T16:58:07;5.22;;;4.20;;
6342;SDS011;3204;42.698;23.298;2022-09-17T17:00:32;5.57;;;4.55;;
6342;SDS011;3204;42.698;23.298;2022-09-17T17:02:58;4.40;;;3.80;;
6342;SDS011;3204;42.698;23.298;2022-09-17T17:05:24;4.55;;;4.15;;
6342;SDS011;3204;42.698;23.298;2022-09-17T17:07:50;6.80;;;4.40;;
6342;SDS011;3204;42.698;23.298;2022-09-17T17:10:16;4.95;;;4.47;;
6342;SDS011;3204;42.698;23.298;2022-09-17T17:12:42;4.82;;;4.35;;
6342;SDS011;3204;42.698;23.298;2022-09-17T17:15:08;5.43;;;4.75;;
6342;SDS011;3204;42.698;23.298;2022-09-17T17:17:34;6.10;;;4.93;;
6342;SDS011;3204;42.698;23.298;2022-09-17T17:20:00;3.80;;;3.60;;
6342;SDS011;3204;42.698;23.298;2022-09-17T17:22:30;3.45;;;3.10;;
6342;SDS011;3204;42.698;23.298;2022-09-17T17:24:55;4.80;;;4.13;;
6342;SDS011;3204;42.698;23.298;2022-09-17T17:27:21;7.43;;;4.50;;
6342;SDS011;3204;42.698;23.298;2022-09-17T17:29:46;3.00;;;2.80;;
6342;SDS011;3204;42.698;23.298;2022-09-17T17:32:12;3.67;;;3.38;;
6342;SDS011;3204;42.698;23.298;2022-09-17T17:34:37;3.45;;;3.25;;
6342;SDS011;3204;42.698;23.298;2022-09-17T17:37:03;3.08;;;2.88;;
6342;SDS011;3204;42.698;23.298;2022-09-17T17:39:28;4.45;;;3.40;;
6342;SDS011;3204;42.698;23.298;2022-09-17T17:41:54;5.68;;;4.97;;
6342;SDS011;3204;42.698;23.298;2022-09-17T17:44:20;6.75;;;5.95;;
6342;SDS011;3204;42.698;23.298;2022-09-17T17:46:46;6.53;;;4.57;;
6342;SDS011;3204;42.698;23.298;2022-09-17T17:49:11;4.55;;;4.03;;
6342;SDS011;3204;42.698;23.298;2022-09-17T17:51:36;3.78;;;3.45;;
6342;SDS011;3204;42.698;23.298;2022-09-17T17:54:02;3.83;;;3.55;;
6342;SDS011;3204;42.698;23.298;2022-09-17T17:56:28;3.60;;;3.30;;
6342;SDS011;3204;42.698;23.298;2022-09-17T17:58:54;3.83;;;2.90;;
6342;SDS011;3204;42.698;23.298;2022-09-17T18:01:22;2.55;;;2.42;;
6342;SDS011;3204;42.698;23.298;2022-09-17T18:03:53;3.38;;;2.40;;
6342;SDS011;3204;42.698;23.298;2022-09-17T18:06:20;2.10;;;2.00;;
6342;SDS011;3204;42.698;23.298;2022-09-17T18:08:45;2.63;;;2.42;;
6342;SDS011;3204;42.698;23.298;2022-09-17T18:11:11;3.45;;;2.80;;
6342;SDS011;3204;42.698;23.298;2022-09-17T18:13:37;3.03;;;2.75;;
6342;SDS011;3204;42.698;23.298;2022-09-17T18:16:03;2.70;;;2.58;;
6342;SDS011;3204;42.698;23.298;2022-09-17T18:18:41;3.60;;;2.97;;
6342;SDS011;3204;42.698;23.298;2022-09-17T18:21:08;11.25;;;3.30;;
6342;SDS011;3204;42.698;23.298;2022-09-17T18:23:37;4.95;;;3.22;;
6342;SDS011;3204;42.698;23.298;2022-09-17T18:26:05;3.72;;;3.17;;
6342;SDS011;3204;42.698;23.298;2022-09-17T18:28:33;4.25;;;3.75;;
6342;SDS011;3204;42.698;23.298;2022-09-17T18:31:06;3.85;;;3.53;;
6342;SDS011;3204;42.698;23.298;2022-09-17T18:36:26;4.80;;;4.28;;
6342;SDS011;3204;42.698;23.298;2022-09-17T18:38:54;4.60;;;3.70;;
6342;SDS011;3204;42.698;23.298;2022-09-17T18:41:22;5.47;;;3.63;;
6342;SDS011;3204;42.698;23.298;2022-09-17T18:43:48;4.20;;;3.80;;
6342;SDS011;3204;42.698;23.298;2022-09-17T18:46:14;4.78;;;3.25;;
6342;SDS011;3204;42.698;23.298;2022-09-17T18:48:39;4.88;;;3.75;;
6342;SDS011;3204;42.698;23.298;2022-09-17T18:51:09;4.88;;;4.10;;
6342;SDS011;3204;42.698;23.298;2022-09-17T18:53:36;3.97;;;3.50;;
6342;SDS011;3204;42.698;23.298;2022-09-17T18:56:03;3.88;;;3.50;;
6342;SDS011;3204;42.698;23.298;2022-09-17T18:58:30;4.10;;;3.72;;
6342;SDS011;3204;42.698;23.298;2022-09-17T19:00:56;5.57;;;5.07;;
6342;SDS011;3204;42.698;23.298;2022-09-17T19:03:22;8.63;;;5.20;;
6342;SDS011;3204;42.698;23.298;2022-09-17T19:05:47;5.60;;;4.60;;
6342;SDS011;3204;42.698;23.298;2022-09-17T19:08:13;4.65;;;4.35;;
6342;SDS011;3204;42.698;23.298;2022-09-17T19:10:38;4.30;;;3.95;;
6342;SDS011;3204;42.698;23.298;2022-09-17T19:13:04;4.82;;;4.47;;
6342;SDS011;3204;42.698;23.298;2022-09-17T19:15:30;4.45;;;4.10;;
6342;SDS011;3204;42.698;23.298;2022-09-17T19:17:56;6.40;;;4.03;;
6342;SDS011;3204;42.698;23.298;2022-09-17T19:20:22;4.82;;;4.07;;
6342;SDS011;3204;42.698;23.298;2022-09-17T19:22:49;3.72;;;3.53;;
6342;SDS011;3204;42.698;23.298;2022-09-17T19:25:14;3.63;;;3.00;;
6342;SDS011;3204;42.698;23.298;2022-09-17T19:27:40;7.97;;;3.55;;
6342;SDS011;3204;42.698;23.298;2022-09-17T19:30:06;5.22;;;3.55;;
6342;SDS011;3204;42.698;23.298;2022-09-17T19:32:31;4.43;;;4.10;;
6342;SDS011;3204;42.698;23.298;2022-09-17T19:34:57;5.50;;;3.60;;
6342;SDS011;3204;42.698;23.298;2022-09-17T19:37:23;8.60;;;4.72;;
6342;SDS011;3204;42.698;23.298;2022-09-17T19:39:48;4.85;;;4.45;;
6342;SDS011;3204;42.698;23.298;2022-09-17T19:42:14;8.35;;;4.63;;